sensor_id;sensor_type;location;lat;lon;timestamp;pressure;altitude;pressure_sealevel;temperature;humidity
31538;BME280;18147;51.952;6.146;2023-05-19T00:02:00;102638.22;;;8.45;100.00
31538;BME280;18147;51.952;6.146;2023-05-19T00:04:32;102637.91;;;8.57;100.00
31538;BME280;18147;51.952;6.146;2023-05-19T00:06:58;102640.03;;;8.43;100.00
31538;BME280;18147;51.952;6.146;2023-05-19T00:09:25;102639.06;;;8.47;100.00
31538;BME280;18147;51.952;6.146;2023-05-19T00:11:50;102637.59;;;8.34;100.00
31538;BME280;18147;51.952;6.146;2023-05-19T00:14:19;102644.78;;;8.30;100.00
31538;BME280;18147;51.952;6.146;2023-05-19T00:16:45;102643.25;;;8.20;100.00
31538;BME280;18147;51.952;6.146;2023-05-19T00:19:14;102646.56;;;8.28;100.00
31538;BME280;18147;51.952;6.146;2023-05-19T00:21:41;102642.28;;;8.24;100.00
31538;BME280;18147;51.952;6.146;2023-05-19T00:24:07;102634.44;;;8.18;100.00
31538;BME280;18147;51.952;6.146;2023-05-19T00:26:35;102648.06;;;8.04;100.00
31538;BME280;18147;51.952;6.146;2023-05-19T00:29:05;102646.56;;;8.28;100.00
31538;BME280;18147;51.952;6.146;2023-05-19T00:31:31;102644.78;;;8.30;100.00
31538;BME280;18147;51.952;6.146;2023-05-19T00:34:00;102642.66;;;8.07;100.00
31538;BME280;18147;51.952;6.146;2023-05-19T00:36:26;102635.50;;;8.11;100.00
31538;BME280;18147;51.952;6.146;2023-05-19T00:38:51;102640.66;;;8.18;100.00
31538;BME280;18147;51.952;6.146;2023-05-19T00:41:18;102635.66;;;8.04;100.00
31538;BME280;18147;51.952;6.146;2023-05-19T00:43:43;102637.72;;;8.29;100.00
31538;BME280;18147;51.952;6.146;2023-05-19T00:46:09;102637.94;;;8.20;100.00
31538;BME280;18147;51.952;6.146;2023-05-19T00:48:35;102632.78;;;8.14;100.00
31538;BME280;18147;51.952;6.146;2023-05-19T00:51:02;102630.00;;;8.18;100.00
31538;BME280;18147;51.952;6.146;2023-05-19T00:53:32;102629.22;;;8.13;100.00
31538;BME280;18147;51.952;6.146;2023-05-19T00:55:59;102625.41;;;7.89;100.00
31538;BME280;18147;51.952;6.146;2023-05-19T00:58:26;102621.63;;;7.98;100.00
31538;BME280;18147;51.952;6.146;2023-05-19T01:00:58;102620.00;;;7.92;100.00
31538;BME280;18147;51.952;6.146;2023-05-19T01:03:30;102622.28;;;8.08;100.00
31538;BME280;18147;51.952;6.146;2023-05-19T01:05:55;102617.28;;;7.95;100.00
31538;BME280;18147;51.952;6.146;2023-05-19T01:08:22;102624.53;;;7.87;100.00
31538;BME280;18147;51.952;6.146;2023-05-19T01:10:48;102628.31;;;7.77;100.00
31538;BME280;18147;51.952;6.146;2023-05-19T01:13:17;102623.66;;;7.87;100.00
31538;BME280;18147;51.952;6.146;2023-05-19T01:15:57;102631.31;;;7.62;100.00
31538;BME280;18147;51.952;6.146;2023-05-19T01:18:31;102636.22;;;7.40;100.00
31538;BME280;18147;51.952;6.146;2023-05-19T01:24:22;102636.63;;;7.63;100.00
31538;BME280;18147;51.952;6.146;2023-05-19T01:30:13;102633.41;;;7.47;100.00
31538;BME280;18147;51.952;6.146;2023-05-19T01:32:43;102629.59;;;7.61;100.00
31538;BME280;18147;51.952;6.146;2023-05-19T01:35:11;102630.88;;;7.41;100.00
31538;BME280;18147;51.952;6.146;2023-05-19T01:37:40;102630.50;;;7.60;100.00
31538;BME280;18147;51.952;6.146;2023-05-19T01:40:09;102634.41;;;7.43;100.00
31538;BME280;18147;51.952;6.146;2023-05-19T01:42:36;102634.25;;;7.49;100.00
31538;BME280;18147;51.952;6.146;2023-05-19T01:45:07;102638.38;;;7.64;100.00
31538;BME280;18147;51.952;6.146;2023-05-19T01:47:38;102640.25;;;7.59;100.00
31538;BME280;18147;51.952;6.146;2023-05-19T01:50:06;102641.78;;;7.69;100.00
31538;BME280;18147;51.952;6.146;2023-05-19T01:52:32;102639.03;;;7.72;100.00
31538;BME280;18147;51.952;6.146;2023-05-19T01:54:59;102628.81;;;7.56;100.00
31538;BME280;18147;51.952;6.146;2023-05-19T02:05:44;102636.38;;;7.34;100.00
31538;BME280;18147;51.952;6.146;2023-05-19T02:08:43;102631.06;;;7.32;100.00
31538;BME280;18147;51.952;6.146;2023-05-19T02:11:22;102629.88;;;7.47;100.00
31538;BME280;18147;51.952;6.146;2023-05-19T02:13:53;102618.19;;;7.56;100.00
31538;BME280;18147;51.952;6.146;2023-05-19T02:16:24;102624.31;;;7.17;100.00
31538;BME280;18147;51.952;6.146;2023-05-19T02:18:52;102623.84;;;7.40;100.00
31538;BME280;18147;51.952;6.146;2023-05-19T02:21:18;102615.94;;;7.37;100.00
31538;BME280;18147;51.952;6.146;2023-05-19T02:23:44;102618.69;;;7.33;100.00
31538;BME280;18147;51.952;6.146;2023-05-19T02:26:09;102624.06;;;7.30;100.00
31538;BME280;18147;51.952;6.146;2023-05-19T02:28:35;102608.88;;;7.36;100.00
31538;BME280;18147;51.952;6.146;2023-05-19T02:31:01;102620.72;;;7.20;100.00
31538;BME280;18147;51.952;6.146;2023-05-19T02:33:27;102618.91;;;7.22;100.00
31538;BME280;18147;51.952;6.146;2023-05-19T02:35:56;102620.09;;;7.07;100.00
31538;BME280;18147;51.952;6.146;2023-05-19T02:38:22;102622.00;;;7.00;100.00
31538;BME280;18147;51.952;6.146;2023-05-19T02:40:47;102616.44;;;7.14;100.00
31538;BME280;18147;51.952;6.146;2023-05-19T02:43:13;102618.25;;;7.11;100.00
31538;BME280;18147;51.952;6.146;2023-05-19T02:45:39;102618.34;;;7.06;100.00
31538;BME280;18147;51.952;6.146;2023-05-19T02:48:06;102617.66;;;6.98;100.00
31538;BME280;18147;51.952;6.146;2023-05-19T02:50:31;102614.00;;;7.04;100.00
31538;BME280;18147;51.952;6.146;2023-05-19T02:52:57;102614.03;;;7.00;100.00
31538;BME280;18147;51.952;6.146;2023-05-19T02:55:23;102608.47;;;7.14;100.00
31538;BME280;18147;51.952;6.146;2023-05-19T02:57:49;102609.56;;;7.03;100.00
31538;BME280;18147;51.952;6.146;2023-05-19T03:00:15;102617.91;;;6.83;100.00
31538;BME280;18147;51.952;6.146;2023-05-19T03:02:43;102615.00;;;6.98;100.00
31538;BME280;18147;51.952;6.146;2023-05-19T03:05:09;102613.91;;;7.07;100.00
31538;BME280;18147;51.952;6.146;2023-05-19T03:07:35;102602.41;;;7.08;100.00
31538;BME280;18147;51.952;6.146;2023-05-19T03:10:01;102598.78;;;7.13;100.00
31538;BME280;18147;51.952;6.146;2023-05-19T03:12:32;102603.44;;;7.00;100.00
31538;BME280;18147;51.952;6.146;2023-05-19T03:14:58;102605.03;;;7.09;100.00
31538;BME280;18147;51.952;6.146;2023-05-19T03:17:24;102605.03;;;7.09;100.00
31538;BME280;18147;51.952;6.146;2023-05-19T03:19:53;102606.34;;;6.88;100.00
31538;BME280;18147;51.952;6.146;2023-05-19T03:22:18;102617.88;;;6.86;100.00
31538;BME280;18147;51.952;6.146;2023-05-19T03:24:45;102611.56;;;6.93;100.00
31538;BME280;18147;51.952;6.146;2023-05-19T03:27:12;102608.78;;;6.97;100.00
31538;BME280;18147;51.952;6.146;2023-05-19T03:29:37;102608.66;;;7.05;100.00
31538;BME280;18147;51.952;6.146;2023-05-19T03:32:06;102607.91;;;6.98;100.00
31538;BME280;18147;51.952;6.146;2023-05-19T03:34:32;102604.94;;;6.69;100.00
31538;BME280;18147;51.952;6.146;2023-05-19T03:37:01;102616.63;;;6.59;100.00
31538;BME280;18147;51.952;6.146;2023-05-19T03:39:27;102611.28;;;6.60;100.00
31538;BME280;18147;51.952;6.146;2023-05-19T03:41:52;102614.63;;;6.70;100.00
31538;BME280;18147;51.952;6.146;2023-05-19T03:44:18;102612.78;;;6.75;100.00
31538;BME280;18147;51.952;6.146;2023-05-19T03:46:43;102617.91;;;6.84;100.00
31538;BME280;18147;51.952;6.146;2023-05-19T03:49:28;102614.00;;;7.04;100.00
31538;BME280;18147;51.952;6.146;2023-05-19T03:51:56;102615.56;;;7.14;100.00
31538;BME280;18147;51.952;6.146;2023-05-19T03:54:42;102615.19;;;7.31;100.00
31538;BME280;18147;51.952;6.146;2023-05-19T03:57:08;102615.81;;;7.43;100.00
31538;BME280;18147;51.952;6.146;2023-05-19T03:59:35;102611.09;;;7.95;100.00
31538;BME280;18147;51.952;6.146;2023-05-19T04:02:02;102607.72;;;8.24;100.00
31538;BME280;18147;51.952;6.146;2023-05-19T04:04:28;102601.00;;;8.77;100.00
31538;BME280;18147;51.952;6.146;2023-05-19T04:06:54;102597.47;;;9.08;100.00
31538;BME280;18147;51.952;6.146;2023-05-19T04:09:20;102601.59;;;8.89;100.00
31538;BME280;18147;51.952;6.146;2023-05-19T04:11:48;102608.06;;;8.78;100.00
31538;BME280;18147;51.952;6.146;2023-05-19T04:14:14;102598.84;;;9.80;100.00
31538;BME280;18147;51.952;6.146;2023-05-19T04:16:42;102607.16;;;10.26;100.00
31538;BME280;18147;51.952;6.146;2023-05-19T04:19:07;102612.66;;;9.36;100.00
31538;BME280;18147;51.952;6.146;2023-05-19T04:21:35;102607.94;;;9.45;100.00
31538;BME280;18147;51.952;6.146;2023-05-19T04:24:01;102603.41;;;10.31;100.00
31538;BME280;18147;51.952;6.146;2023-05-19T04:26:27;102595.81;;;10.96;100.00
31538;BME280;18147;51.952;6.146;2023-05-19T04:28:55;102591.50;;;11.38;100.00
31538;BME280;18147;51.952;6.146;2023-05-19T04:31:22;102592.00;;;11.48;100.00
31538;BME280;18147;51.952;6.146;2023-05-19T04:33:48;102603.06;;;11.15;100.00
31538;BME280;18147;51.952;6.146;2023-05-19T04:36:14;102594.81;;;11.45;100.00
31538;BME280;18147;51.952;6.146;2023-05-19T04:38:44;102590.63;;;11.61;100.00
31538;BME280;18147;51.952;6.146;2023-05-19T04:41:11;102596.19;;;10.85;100.00
31538;BME280;18147;51.952;6.146;2023-05-19T04:43:38;102590.06;;;11.06;100.00
31538;BME280;18147;51.952;6.146;2023-05-19T04:46:07;102585.94;;;11.45;100.00
31538;BME280;18147;51.952;6.146;2023-05-19T04:48:35;102586.47;;;11.07;100.00
31538;BME280;18147;51.952;6.146;2023-05-19T04:51:01;102591.22;;;11.68;100.00
31538;BME280;18147;51.952;6.146;2023-05-19T04:53:28;102585.66;;;12.18;100.00
31538;BME280;18147;51.952;6.146;2023-05-19T04:55:54;102573.16;;;13.38;100.00
31538;BME280;18147;51.952;6.146;2023-05-19T04:58:21;102576.19;;;13.49;96.68
31538;BME280;18147;51.952;6.146;2023-05-19T05:00:51;102576.59;;;13.02;97.17
31538;BME280;18147;51.952;6.146;2023-05-19T05:03:20;102578.25;;;13.05;95.39
31538;BME280;18147;51.952;6.146;2023-05-19T05:05:50;102579.22;;;12.83;97.43
31538;BME280;18147;51.952;6.146;2023-05-19T05:08:17;102575.75;;;11.76;100.00
31538;BME280;18147;51.952;6.146;2023-05-19T05:10:50;102585.09;;;11.66;100.00
31538;BME280;18147;51.952;6.146;2023-05-19T05:13:19;102580.66;;;12.51;100.00
31538;BME280;18147;51.952;6.146;2023-05-19T05:15:47;102577.16;;;13.67;97.56
31538;BME280;18147;51.952;6.146;2023-05-19T05:18:14;102578.75;;;12.94;97.54
31538;BME280;18147;51.952;6.146;2023-05-19T05:20:41;102577.06;;;13.68;96.45
31538;BME280;18147;51.952;6.146;2023-05-19T05:23:09;102585.56;;;13.01;100.00
31538;BME280;18147;51.952;6.146;2023-05-19T05:25:37;102575.97;;;13.35;93.58
31538;BME280;18147;51.952;6.146;2023-05-19T05:28:05;102576.78;;;12.38;98.89
31538;BME280;18147;51.952;6.146;2023-05-19T05:30:35;102583.44;;;12.07;100.00
31538;BME280;18147;51.952;6.146;2023-05-19T05:33:01;102588.97;;;12.03;100.00
31538;BME280;18147;51.952;6.146;2023-05-19T05:35:34;102585.81;;;12.35;100.00
31538;BME280;18147;51.952;6.146;2023-05-19T05:38:01;102586.06;;;12.50;100.00
31538;BME280;18147;51.952;6.146;2023-05-19T05:40:28;102590.41;;;12.73;100.00
31538;BME280;18147;51.952;6.146;2023-05-19T05:42:53;102598.56;;;12.69;100.00
31538;BME280;18147;51.952;6.146;2023-05-19T05:45:21;102592.16;;;12.53;100.00
31538;BME280;18147;51.952;6.146;2023-05-19T05:47:48;102586.56;;;12.99;100.00
31538;BME280;18147;51.952;6.146;2023-05-19T05:50:15;102592.56;;;13.24;100.00
31538;BME280;18147;51.952;6.146;2023-05-19T05:52:47;102588.09;;;13.62;100.00
31538;BME280;18147;51.952;6.146;2023-05-19T05:55:15;102584.59;;;13.23;100.00
31538;BME280;18147;51.952;6.146;2023-05-19T05:57:43;102595.09;;;12.47;100.00
31538;BME280;18147;51.952;6.146;2023-05-19T06:00:09;102592.16;;;12.53;100.00
31538;BME280;18147;51.952;6.146;2023-05-19T06:02:50;102597.56;;;12.31;100.00
31538;BME280;18147;51.952;6.146;2023-05-19T06:05:18;102596.72;;;12.51;100.00
31538;BME280;18147;51.952;6.146;2023-05-19T06:07:45;102597.13;;;12.62;100.00
31538;BME280;18147;51.952;6.146;2023-05-19T06:10:18;102597.13;;;12.42;100.00
31538;BME280;18147;51.952;6.146;2023-05-19T06:12:43;102593.56;;;12.62;100.00
31538;BME280;18147;51.952;6.146;2023-05-19T06:15:10;102585.94;;;13.12;100.00
31538;BME280;18147;51.952;6.146;2023-05-19T06:17:58;102588.50;;;13.34;100.00
31538;BME280;18147;51.952;6.146;2023-05-19T06:20:24;102578.97;;;13.66;100.00
31538;BME280;18147;51.952;6.146;2023-05-19T06:22:50;102586.69;;;13.35;99.85
31538;BME280;18147;51.952;6.146;2023-05-19T06:25:18;102581.34;;;13.90;98.13
31538;BME280;18147;51.952;6.146;2023-05-19T06:27:45;102574.38;;;14.39;93.20
31538;BME280;18147;51.952;6.146;2023-05-19T06:30:12;102577.63;;;14.29;92.10
31538;BME280;18147;51.952;6.146;2023-05-19T06:32:48;102591.53;;;14.37;92.34
31538;BME280;18147;51.952;6.146;2023-05-19T06:35:14;102585.38;;;14.87;90.01
31538;BME280;18147;51.952;6.146;2023-05-19T06:37:46;102588.69;;;14.74;86.20
31538;BME280;18147;51.952;6.146;2023-05-19T06:40:12;102583.50;;;14.71;87.58
31538;BME280;18147;51.952;6.146;2023-05-19T06:42:42;102594.69;;;14.80;88.24
31538;BME280;18147;51.952;6.146;2023-05-19T06:45:18;102584.66;;;14.66;87.72
31538;BME280;18147;51.952;6.146;2023-05-19T06:47:49;102579.94;;;14.36;84.88
31538;BME280;18147;51.952;6.146;2023-05-19T06:50:15;102586.00;;;14.40;85.83
31538;BME280;18147;51.952;6.146;2023-05-19T06:52:42;102591.13;;;14.79;87.54
31538;BME280;18147;51.952;6.146;2023-05-19T06:55:08;102579.28;;;14.66;86.55
31538;BME280;18147;51.952;6.146;2023-05-19T06:57:36;102584.19;;;14.75;88.10
31538;BME280;18147;51.952;6.146;2023-05-19T07:00:08;102574.34;;;15.24;84.22
31538;BME280;18147;51.952;6.146;2023-05-19T07:02:40;102579.47;;;15.45;83.52
31538;BME280;18147;51.952;6.146;2023-05-19T07:05:05;102578.94;;;15.22;79.30
31538;BME280;18147;51.952;6.146;2023-05-19T07:07:36;102584.16;;;14.92;83.13
31538;BME280;18147;51.952;6.146;2023-05-19T07:10:03;102586.56;;;14.81;86.60
31538;BME280;18147;51.952;6.146;2023-05-19T07:12:31;102580.47;;;15.11;84.66
31538;BME280;18147;51.952;6.146;2023-05-19T07:14:57;102575.53;;;14.86;82.73
31538;BME280;18147;51.952;6.146;2023-05-19T07:17:23;102576.69;;;14.82;80.74
31538;BME280;18147;51.952;6.146;2023-05-19T07:19:50;102571.34;;;14.97;81.65
31538;BME280;18147;51.952;6.146;2023-05-19T07:22:17;102569.22;;;15.20;80.70
31538;BME280;18147;51.952;6.146;2023-05-19T07:24:43;102567.34;;;15.38;81.40
31538;BME280;18147;51.952;6.146;2023-05-19T07:27:08;102566.56;;;15.51;76.45
31538;BME280;18147;51.952;6.146;2023-05-19T07:29:35;102573.66;;;15.52;75.46
31538;BME280;18147;51.952;6.146;2023-05-19T07:32:01;102566.78;;;15.31;75.32
31538;BME280;18147;51.952;6.146;2023-05-19T07:34:26;102565.72;;;15.83;72.05
31538;BME280;18147;51.952;6.146;2023-05-19T07:36:52;102565.63;;;16.14;71.70
31538;BME280;18147;51.952;6.146;2023-05-19T07:39:18;102575.47;;;15.99;72.71
31538;BME280;18147;51.952;6.146;2023-05-19T07:41:44;102569.78;;;16.20;69.63
31538;BME280;18147;51.952;6.146;2023-05-19T07:44:20;102571.41;;;16.52;70.40
31538;BME280;18147;51.952;6.146;2023-05-19T07:46:46;102564.25;;;16.81;68.61
31538;BME280;18147;51.952;6.146;2023-05-19T07:49:12;102561.31;;;16.42;66.85
31538;BME280;18147;51.952;6.146;2023-05-19T07:51:37;102565.50;;;16.90;69.14
31538;BME280;18147;51.952;6.146;2023-05-19T07:54:06;102569.75;;;16.94;67.16
31538;BME280;18147;51.952;6.146;2023-05-19T07:56:32;102569.06;;;16.91;65.21
31538;BME280;18147;51.952;6.146;2023-05-19T07:59:01;102568.16;;;16.47;68.50
31538;BME280;18147;51.952;6.146;2023-05-19T08:01:28;102569.47;;;16.40;68.40
31538;BME280;18147;51.952;6.146;2023-05-19T08:03:54;102564.06;;;16.85;65.17
31538;BME280;18147;51.952;6.146;2023-05-19T08:06:19;102557.91;;;17.11;64.70
31538;BME280;18147;51.952;6.146;2023-05-19T08:08:46;102551.81;;;17.22;62.35
31538;BME280;18147;51.952;6.146;2023-05-19T08:11:11;102551.06;;;17.61;61.76
31538;BME280;18147;51.952;6.146;2023-05-19T08:13:37;102548.56;;;17.72;63.48
31538;BME280;18147;51.952;6.146;2023-05-19T08:16:04;102544.34;;;17.54;64.84
31538;BME280;18147;51.952;6.146;2023-05-19T08:18:37;102547.53;;;18.15;60.13
31538;BME280;18147;51.952;6.146;2023-05-19T08:21:07;102549.38;;;17.46;60.54
31538;BME280;18147;51.952;6.146;2023-05-19T08:23:32;102542.63;;;17.53;63.01
31538;BME280;18147;51.952;6.146;2023-05-19T08:25:58;102546.34;;;17.38;60.67
31538;BME280;18147;51.952;6.146;2023-05-19T08:28:24;102543.75;;;17.63;61.38
31538;BME280;18147;51.952;6.146;2023-05-19T08:30:50;102541.72;;;17.11;62.16
31538;BME280;18147;51.952;6.146;2023-05-19T08:33:19;102545.75;;;17.32;61.81
31538;BME280;18147;51.952;6.146;2023-05-19T08:35:47;102537.72;;;17.45;61.44
31538;BME280;18147;51.952;6.146;2023-05-19T08:38:12;102525.94;;;18.40;59.52
31538;BME280;18147;51.952;6.146;2023-05-19T08:40:41;102523.03;;;18.18;60.03
31538;BME280;18147;51.952;6.146;2023-05-19T08:43:10;102520.66;;;17.86;58.87
31538;BME280;18147;51.952;6.146;2023-05-19T08:45:39;102525.72;;;17.78;58.66
31538;BME280;18147;51.952;6.146;2023-05-19T08:48:07;102512.72;;;17.97;57.44
31538;BME280;18147;51.952;6.146;2023-05-19T08:50:38;102513.53;;;18.37;56.20
31538;BME280;18147;51.952;6.146;2023-05-19T08:53:11;102516.66;;;18.19;58.20
31538;BME280;18147;51.952;6.146;2023-05-19T08:56:07;102503.81;;;17.82;57.53
31538;BME280;18147;51.952;6.146;2023-05-19T08:58:40;102503.91;;;17.81;56.75
31538;BME280;18147;51.952;6.146;2023-05-19T09:01:08;102502.19;;;17.66;55.08
31538;BME280;18147;51.952;6.146;2023-05-19T09:03:37;102499.94;;;17.18;56.65
31538;BME280;18147;51.952;6.146;2023-05-19T09:06:06;102488.25;;;17.73;55.98
31538;BME280;18147;51.952;6.146;2023-05-19T09:08:35;102500.91;;;17.58;57.67
31538;BME280;18147;51.952;6.146;2023-05-19T09:11:02;102493.66;;;17.86;54.00
31538;BME280;18147;51.952;6.146;2023-05-19T09:13:27;102494.69;;;17.98;57.00
31538;BME280;18147;51.952;6.146;2023-05-19T09:15:55;102492.06;;;17.96;53.82
31538;BME280;18147;51.952;6.146;2023-05-19T09:18:20;102491.81;;;17.59;51.48
31538;BME280;18147;51.952;6.146;2023-05-19T09:20:48;102500.91;;;17.58;51.95
31538;BME280;18147;51.952;6.146;2023-05-19T09:23:16;102493.81;;;17.97;52.28
31538;BME280;18147;51.952;6.146;2023-05-19T09:25:47;102486.66;;;17.96;50.37
31538;BME280;18147;51.952;6.146;2023-05-19T09:28:13;102482.91;;;17.99;52.16
31538;BME280;18147;51.952;6.146;2023-05-19T09:30:39;102483.94;;;18.74;53.38
31538;BME280;18147;51.952;6.146;2023-05-19T09:33:07;102487.38;;;18.13;52.38
31538;BME280;18147;51.952;6.146;2023-05-19T09:35:35;102478.44;;;17.85;52.56
31538;BME280;18147;51.952;6.146;2023-05-19T09:38:01;102477.81;;;17.13;52.44
31538;BME280;18147;51.952;6.146;2023-05-19T09:40:27;102477.03;;;17.52;53.66
31538;BME280;18147;51.952;6.146;2023-05-19T09:42:53;102471.81;;;18.03;52.59
31538;BME280;18147;51.952;6.146;2023-05-19T09:45:18;102470.97;;;18.54;53.96
31538;BME280;18147;51.952;6.146;2023-05-19T09:47:44;102477.19;;;18.16;52.51
31538;BME280;18147;51.952;6.146;2023-05-19T09:50:11;102468.78;;;18.72;50.64
31538;BME280;18147;51.952;6.146;2023-05-19T09:52:39;102468.69;;;18.48;51.38
31538;BME280;18147;51.952;6.146;2023-05-19T09:55:10;102466.53;;;18.40;51.76
31538;BME280;18147;51.952;6.146;2023-05-19T09:57:37;102461.88;;;18.55;53.64
31538;BME280;18147;51.952;6.146;2023-05-19T10:00:08;102462.31;;;18.49;51.47
31538;BME280;18147;51.952;6.146;2023-05-19T10:02:43;102456.13;;;18.47;51.41
31538;BME280;18147;51.952;6.146;2023-05-19T10:05:17;102452.34;;;18.62;50.23
31538;BME280;18147;51.952;6.146;2023-05-19T10:07:53;102461.88;;;19.17;53.66
31538;BME280;18147;51.952;6.146;2023-05-19T10:10:19;102457.31;;;18.81;50.71
31538;BME280;18147;51.952;6.146;2023-05-19T10:12:48;102461.88;;;18.80;51.50
31538;BME280;18147;51.952;6.146;2023-05-19T10:15:19;102462.19;;;18.76;53.50
31538;BME280;18147;51.952;6.146;2023-05-19T10:17:49;102459.19;;;18.68;53.46
31538;BME280;18147;51.952;6.146;2023-05-19T10:20:16;102447.56;;;19.52;49.03
31538;BME280;18147;51.952;6.146;2023-05-19T10:22:44;102449.81;;;19.34;48.84
31538;BME280;18147;51.952;6.146;2023-05-19T10:25:11;102450.25;;;19.52;50.14
31538;BME280;18147;51.952;6.146;2023-05-19T10:27:44;102449.81;;;18.97;50.29
31538;BME280;18147;51.952;6.146;2023-05-19T10:30:17;102460.16;;;18.54;49.33
31538;BME280;18147;51.952;6.146;2023-05-19T10:32:49;102452.38;;;19.11;51.87
31538;BME280;18147;51.952;6.146;2023-05-19T10:35:39;102445.56;;;18.69;50.01
31538;BME280;18147;51.952;6.146;2023-05-19T10:44:04;102432.22;;;19.28;53.09
31538;BME280;18147;51.952;6.146;2023-05-19T10:46:35;102430.91;;;18.97;48.11
31538;BME280;18147;51.952;6.146;2023-05-19T10:49:01;102428.72;;;19.02;51.29
31538;BME280;18147;51.952;6.146;2023-05-19T10:51:30;102433.47;;;19.35;51.01
31538;BME280;18147;51.952;6.146;2023-05-19T10:53:57;102432.13;;;18.93;51.59
31538;BME280;18147;51.952;6.146;2023-05-19T10:56:28;102432.44;;;19.73;52.78
31538;BME280;18147;51.952;6.146;2023-05-19T10:58:55;102427.03;;;18.88;49.65
31538;BME280;18147;51.952;6.146;2023-05-19T11:01:21;102427.06;;;19.12;51.87
31538;BME280;18147;51.952;6.146;2023-05-19T11:03:55;102427.91;;;18.89;49.75
31538;BME280;18147;51.952;6.146;2023-05-19T11:06:28;102434.09;;;18.40;49.05
31538;BME280;18147;51.952;6.146;2023-05-19T11:08:58;102420.00;;;18.86;49.44
31538;BME280;18147;51.952;6.146;2023-05-19T11:11:47;102426.84;;;18.79;50.71
31538;BME280;18147;51.952;6.146;2023-05-19T11:14:17;102415.38;;;19.12;48.80
31538;BME280;18147;51.952;6.146;2023-05-19T11:16:57;102418.03;;;19.49;50.80
31538;BME280;18147;51.952;6.146;2023-05-19T11:19:31;102409.97;;;19.12;47.73
31538;BME280;18147;51.952;6.146;2023-05-19T11:22:07;102427.72;;;18.79;48.46
31538;BME280;18147;51.952;6.146;2023-05-19T11:24:47;102422.78;;;18.97;49.21
31538;BME280;18147;51.952;6.146;2023-05-19T11:29:54;102413.97;;;18.82;52.76
31538;BME280;18147;51.952;6.146;2023-05-19T11:32:23;102414.81;;;19.20;49.67
31538;BME280;18147;51.952;6.146;2023-05-19T11:34:50;102406.94;;;18.80;49.27
31538;BME280;18147;51.952;6.146;2023-05-19T11:37:16;102404.44;;;19.37;50.75
31538;BME280;18147;51.952;6.146;2023-05-19T11:39:45;102406.06;;;19.40;49.70
31538;BME280;18147;51.952;6.146;2023-05-19T11:42:11;102408.16;;;18.76;47.82
31538;BME280;18147;51.952;6.146;2023-05-19T11:44:37;102401.22;;;18.84;48.04
31538;BME280;18147;51.952;6.146;2023-05-19T11:47:08;102413.13;;;19.06;48.32
31538;BME280;18147;51.952;6.146;2023-05-19T11:49:35;102413.38;;;19.03;50.30
31538;BME280;18147;51.952;6.146;2023-05-19T11:52:01;102402.66;;;19.25;47.73
31538;BME280;18147;51.952;6.146;2023-05-19T11:54:38;102402.78;;;19.24;47.56
31538;BME280;18147;51.952;6.146;2023-05-19T11:57:10;102401.56;;;19.52;49.18
31538;BME280;18147;51.952;6.146;2023-05-19T11:59:37;102387.19;;;19.27;45.76
31538;BME280;18147;51.952;6.146;2023-05-19T12:02:23;102391.56;;;19.17;50.13
31538;BME280;18147;51.952;6.146;2023-05-19T12:04:50;102390.00;;;18.52;49.14
31538;BME280;18147;51.952;6.146;2023-05-19T12:07:21;102387.38;;;19.13;47.79
31538;BME280;18147;51.952;6.146;2023-05-19T12:09:48;102393.41;;;19.40;48.70
31538;BME280;18147;51.952;6.146;2023-05-19T12:12:15;102386.94;;;19.54;49.88
31538;BME280;18147;51.952;6.146;2023-05-19T12:14:47;102386.50;;;19.60;48.54
31538;BME280;18147;51.952;6.146;2023-05-19T12:17:15;102385.59;;;20.06;47.73
31538;BME280;18147;51.952;6.146;2023-05-19T12:19:42;102394.13;;;20.35;51.52
31538;BME280;18147;51.952;6.146;2023-05-19T12:22:08;102386.53;;;19.83;47.60
31538;BME280;18147;51.952;6.146;2023-05-19T12:24:36;102380.59;;;20.47;46.05
31538;BME280;18147;51.952;6.146;2023-05-19T12:27:21;102377.75;;;20.48;46.40
31538;BME280;18147;51.952;6.146;2023-05-19T12:29:54;102377.22;;;20.88;48.06
31538;BME280;18147;51.952;6.146;2023-05-19T12:32:25;102364.81;;;20.74;50.06
31538;BME280;18147;51.952;6.146;2023-05-19T12:34:52;102368.00;;;20.68;50.57
31538;BME280;18147;51.952;6.146;2023-05-19T12:37:18;102371.34;;;20.72;49.53
31538;BME280;18147;51.952;6.146;2023-05-19T12:39:44;102372.34;;;20.14;47.55
31538;BME280;18147;51.952;6.146;2023-05-19T12:42:11;102374.19;;;19.67;46.50
31538;BME280;18147;51.952;6.146;2023-05-19T12:44:46;102364.56;;;19.99;48.23
31538;BME280;18147;51.952;6.146;2023-05-19T12:47:13;102368.69;;;19.69;48.20
31538;BME280;18147;51.952;6.146;2023-05-19T12:52:25;102367.38;;;19.86;47.89
31538;BME280;18147;51.952;6.146;2023-05-19T12:55:08;102364.03;;;19.82;45.67
31538;BME280;18147;51.952;6.146;2023-05-19T12:57:43;102358.53;;;20.17;46.22
31538;BME280;18147;51.952;6.146;2023-05-19T13:00:17;102349.53;;;20.73;44.48
31538;BME280;18147;51.952;6.146;2023-05-19T13:03:04;102345.63;;;20.55;47.03
31538;BME280;18147;51.952;6.146;2023-05-19T13:05:38;102342.88;;;20.66;48.68
31538;BME280;18147;51.952;6.146;2023-05-19T13:08:11;102343.91;;;20.54;48.30
31538;BME280;18147;51.952;6.146;2023-05-19T13:10:38;102338.72;;;20.39;49.01
31538;BME280;18147;51.952;6.146;2023-05-19T13:13:08;102352.81;;;19.76;48.54
31538;BME280;18147;51.952;6.146;2023-05-19T13:15:37;102349.28;;;19.16;47.50
31538;BME280;18147;51.952;6.146;2023-05-19T13:18:07;102347.78;;;19.12;49.55
31538;BME280;18147;51.952;6.146;2023-05-19T13:20:36;102339.75;;;19.34;48.59
31538;BME280;18147;51.952;6.146;2023-05-19T13:23:02;102336.84;;;19.95;48.96